sensor_id;sensor_type;location;lat;lon;timestamp;P1;durP1;ratioP1;P2;durP2;ratioP2
14754;SDS011;7469;50.906;6.952;2024-03-02T00:01:52;3.33;;;1.80;;
14754;SDS011;7469;50.906;6.952;2024-03-02T00:04:20;2.57;;;1.60;;
14754;SDS011;7469;50.906;6.952;2024-03-02T00:06:50;2.03;;;1.50;;
14754;SDS011;7469;50.906;6.952;2024-03-02T00:09:20;1.53;;;1.43;;
14754;SDS011;7469;50.906;6.952;2024-03-02T00:11:48;2.43;;;1.70;;
14754;SDS011;7469;50.906;6.952;2024-03-02T00:14:17;2.20;;;1.53;;
14754;SDS011;7469;50.906;6.952;2024-03-02T00:16:45;2.13;;;1.67;;
14754;SDS011;7469;50.906;6.952;2024-03-02T00:19:13;2.60;;;1.73;;
14754;SDS011;7469;50.906;6.952;2024-03-02T00:21:41;1.60;;;1.50;;
14754;SDS011;7469;50.906;6.952;2024-03-02T00:24:18;1.50;;;1.40;;
14754;SDS011;7469;50.906;6.952;2024-03-02T00:26:53;2.33;;;2.00;;
14754;SDS011;7469;50.906;6.952;2024-03-02T00:29:21;2.87;;;1.60;;
14754;SDS011;7469;50.906;6.952;2024-03-02T00:31:49;1.80;;;1.50;;
14754;SDS011;7469;50.906;6.952;2024-03-02T00:34:17;2.13;;;1.70;;
14754;SDS011;7469;50.906;6.952;2024-03-02T00:36:45;2.10;;;1.90;;
14754;SDS011;7469;50.906;6.952;2024-03-02T00:39:13;3.40;;;1.50;;
14754;SDS011;7469;50.906;6.952;2024-03-02T00:41:44;1.77;;;1.67;;
14754;SDS011;7469;50.906;6.952;2024-03-02T00:44:12;1.97;;;1.40;;
14754;SDS011;7469;50.906;6.952;2024-03-02T00:46:42;1.50;;;1.40;;
14754;SDS011;7469;50.906;6.952;2024-03-02T00:49:12;1.70;;;1.40;;
14754;SDS011;7469;50.906;6.952;2024-03-02T00:51:50;2.00;;;1.80;;
14754;SDS011;7469;50.906;6.952;2024-03-02T00:54:19;1.77;;;1.60;;
14754;SDS011;7469;50.906;6.952;2024-03-02T00:56:51;1.83;;;1.63;;
14754;SDS011;7469;50.906;6.952;2024-03-02T00:59:21;1.40;;;1.30;;
14754;SDS011;7469;50.906;6.952;2024-03-02T01:01:49;1.47;;;1.27;;
14754;SDS011;7469;50.906;6.952;2024-03-02T01:04:17;1.57;;;1.40;;
14754;SDS011;7469;50.906;6.952;2024-03-02T01:06:45;2.30;;;1.40;;
14754;SDS011;7469;50.906;6.952;2024-03-02T01:09:14;2.00;;;1.50;;
14754;SDS011;7469;50.906;6.952;2024-03-02T01:11:44;3.20;;;1.30;;
14754;SDS011;7469;50.906;6.952;2024-03-02T01:14:13;2.37;;;1.40;;
14754;SDS011;7469;50.906;6.952;2024-03-02T01:16:41;2.47;;;1.33;;
14754;SDS011;7469;50.906;6.952;2024-03-02T01:19:09;3.87;;;1.53;;
14754;SDS011;7469;50.906;6.952;2024-03-02T01:21:37;2.27;;;1.20;;
14754;SDS011;7469;50.906;6.952;2024-03-02T01:24:05;2.50;;;1.70;;
14754;SDS011;7469;50.906;6.952;2024-03-02T01:26:33;3.50;;;1.83;;
14754;SDS011;7469;50.906;6.952;2024-03-02T01:29:01;1.30;;;1.23;;
14754;SDS011;7469;50.906;6.952;2024-03-02T01:31:30;1.73;;;1.23;;
14754;SDS011;7469;50.906;6.952;2024-03-02T01:33:58;1.93;;;1.27;;
14754;SDS011;7469;50.906;6.952;2024-03-02T01:36:26;1.57;;;1.47;;
14754;SDS011;7469;50.906;6.952;2024-03-02T01:38:54;1.30;;;1.17;;
14754;SDS011;7469;50.906;6.952;2024-03-02T01:41:22;1.97;;;1.40;;
14754;SDS011;7469;50.906;6.952;2024-03-02T01:43:50;1.53;;;1.23;;
14754;SDS011;7469;50.906;6.952;2024-03-02T01:46:18;3.83;;;1.57;;
14754;SDS011;7469;50.906;6.952;2024-03-02T01:48:48;2.63;;;1.43;;
14754;SDS011;7469;50.906;6.952;2024-03-02T01:51:16;3.07;;;1.50;;
14754;SDS011;7469;50.906;6.952;2024-03-02T01:53:44;2.20;;;1.23;;
14754;SDS011;7469;50.906;6.952;2024-03-02T01:56:11;1.53;;;1.40;;
14754;SDS011;7469;50.906;6.952;2024-03-02T01:58:39;2.00;;;1.50;;
14754;SDS011;7469;50.906;6.952;2024-03-02T02:01:07;3.13;;;1.20;;
14754;SDS011;7469;50.906;6.952;2024-03-02T02:03:36;2.27;;;1.43;;
14754;SDS011;7469;50.906;6.952;2024-03-02T02:06:06;2.00;;;1.33;;
14754;SDS011;7469;50.906;6.952;2024-03-02T02:08:36;2.33;;;1.30;;
14754;SDS011;7469;50.906;6.952;2024-03-02T02:11:04;2.27;;;1.20;;
14754;SDS011;7469;50.906;6.952;2024-03-02T02:13:32;1.60;;;1.33;;
14754;SDS011;7469;50.906;6.952;2024-03-02T02:16:04;1.60;;;1.03;;
14754;SDS011;7469;50.906;6.952;2024-03-02T02:18:32;1.50;;;1.20;;
14754;SDS011;7469;50.906;6.952;2024-03-02T02:21:01;2.63;;;1.53;;
14754;SDS011;7469;50.906;6.952;2024-03-02T02:23:31;2.30;;;1.10;;
14754;SDS011;7469;50.906;6.952;2024-03-02T02:25:59;4.67;;;1.50;;
14754;SDS011;7469;50.906;6.952;2024-03-02T02:28:29;2.20;;;1.10;;
14754;SDS011;7469;50.906;6.952;2024-03-02T02:30:57;2.80;;;1.53;;
14754;SDS011;7469;50.906;6.952;2024-03-02T02:33:26;1.30;;;1.13;;
14754;SDS011;7469;50.906;6.952;2024-03-02T02:35:54;2.53;;;1.57;;
14754;SDS011;7469;50.906;6.952;2024-03-02T02:38:22;2.60;;;1.30;;
14754;SDS011;7469;50.906;6.952;2024-03-02T02:40:51;2.40;;;1.27;;
14754;SDS011;7469;50.906;6.952;2024-03-02T02:43:19;1.43;;;1.33;;
14754;SDS011;7469;50.906;6.952;2024-03-02T02:45:47;2.13;;;1.50;;
14754;SDS011;7469;50.906;6.952;2024-03-02T02:48:15;3.13;;;1.40;;
14754;SDS011;7469;50.906;6.952;2024-03-02T02:50:43;3.07;;;1.50;;
14754;SDS011;7469;50.906;6.952;2024-03-02T02:53:11;1.80;;;1.23;;
14754;SDS011;7469;50.906;6.952;2024-03-02T02:55:39;1.83;;;1.30;;
14754;SDS011;7469;50.906;6.952;2024-03-02T03:00:44;1.80;;;1.33;;
14754;SDS011;7469;50.906;6.952;2024-03-02T03:03:13;4.50;;;1.70;;
14754;SDS011;7469;50.906;6.952;2024-03-02T03:05:41;2.13;;;1.40;;
14754;SDS011;7469;50.906;6.952;2024-03-02T03:08:09;1.60;;;1.47;;
14754;SDS011;7469;50.906;6.952;2024-03-02T03:10:37;3.20;;;1.07;;
14754;SDS011;7469;50.906;6.952;2024-03-02T03:13:05;2.03;;;1.10;;
14754;SDS011;7469;50.906;6.952;2024-03-02T03:15:34;3.47;;;1.33;;
14754;SDS011;7469;50.906;6.952;2024-03-02T03:18:04;3.13;;;1.60;;
14754;SDS011;7469;50.906;6.952;2024-03-02T03:20:32;1.90;;;1.20;;
14754;SDS011;7469;50.906;6.952;2024-03-02T03:23:00;2.90;;;1.30;;
14754;SDS011;7469;50.906;6.952;2024-03-02T03:25:30;1.47;;;1.13;;
14754;SDS011;7469;50.906;6.952;2024-03-02T03:27:58;1.80;;;1.43;;
14754;SDS011;7469;50.906;6.952;2024-03-02T03:30:26;1.93;;;1.40;;
14754;SDS011;7469;50.906;6.952;2024-03-02T03:32:54;5.57;;;1.40;;
14754;SDS011;7469;50.906;6.952;2024-03-02T03:35:23;2.90;;;1.33;;
14754;SDS011;7469;50.906;6.952;2024-03-02T03:37:51;1.60;;;1.50;;
14754;SDS011;7469;50.906;6.952;2024-03-02T03:40:19;2.67;;;1.70;;
14754;SDS011;7469;50.906;6.952;2024-03-02T03:42:47;2.13;;;1.60;;
14754;SDS011;7469;50.906;6.952;2024-03-02T03:45:15;2.10;;;1.40;;
14754;SDS011;7469;50.906;6.952;2024-03-02T03:47:43;3.70;;;1.30;;
14754;SDS011;7469;50.906;6.952;2024-03-02T03:50:11;2.47;;;1.50;;
14754;SDS011;7469;50.906;6.952;2024-03-02T03:52:40;3.57;;;1.60;;
14754;SDS011;7469;50.906;6.952;2024-03-02T03:55:08;1.90;;;1.30;;
14754;SDS011;7469;50.906;6.952;2024-03-02T03:57:36;2.23;;;1.40;;
14754;SDS011;7469;50.906;6.952;2024-03-02T04:00:05;2.30;;;1.40;;
14754;SDS011;7469;50.906;6.952;2024-03-02T04:02:36;2.00;;;1.20;;
14754;SDS011;7469;50.906;6.952;2024-03-02T04:05:05;1.40;;;1.30;;
14754;SDS011;7469;50.906;6.952;2024-03-02T04:07:35;2.40;;;1.37;;
14754;SDS011;7469;50.906;6.952;2024-03-02T04:10:08;1.50;;;1.30;;
14754;SDS011;7469;50.906;6.952;2024-03-02T04:12:38;2.77;;;1.47;;
14754;SDS011;7469;50.906;6.952;2024-03-02T04:15:07;4.53;;;1.53;;
14754;SDS011;7469;50.906;6.952;2024-03-02T04:17:35;1.50;;;1.30;;
14754;SDS011;7469;50.906;6.952;2024-03-02T04:20:03;1.17;;;1.07;;
14754;SDS011;7469;50.906;6.952;2024-03-02T04:22:32;1.40;;;1.10;;
14754;SDS011;7469;50.906;6.952;2024-03-02T04:25:01;1.77;;;1.50;;
14754;SDS011;7469;50.906;6.952;2024-03-02T04:27:32;2.17;;;1.43;;
14754;SDS011;7469;50.906;6.952;2024-03-02T04:30:00;1.60;;;1.30;;
14754;SDS011;7469;50.906;6.952;2024-03-02T04:32:28;1.87;;;1.30;;
14754;SDS011;7469;50.906;6.952;2024-03-02T04:34:56;2.63;;;1.57;;
14754;SDS011;7469;50.906;6.952;2024-03-02T04:37:24;1.67;;;1.50;;
14754;SDS011;7469;50.906;6.952;2024-03-02T04:39:52;1.47;;;1.30;;
14754;SDS011;7469;50.906;6.952;2024-03-02T04:42:20;1.43;;;1.30;;
14754;SDS011;7469;50.906;6.952;2024-03-02T04:44:50;4.37;;;1.90;;
14754;SDS011;7469;50.906;6.952;2024-03-02T04:47:18;1.63;;;1.30;;
14754;SDS011;7469;50.906;6.952;2024-03-02T04:49:46;1.47;;;1.23;;
14754;SDS011;7469;50.906;6.952;2024-03-02T04:52:14;2.20;;;1.50;;
14754;SDS011;7469;50.906;6.952;2024-03-02T04:54:42;2.20;;;1.40;;
14754;SDS011;7469;50.906;6.952;2024-03-02T04:57:24;4.17;;;1.43;;
14754;SDS011;7469;50.906;6.952;2024-03-02T04:59:53;1.47;;;1.37;;
14754;SDS011;7469;50.906;6.952;2024-03-02T05:02:21;2.43;;;1.40;;
14754;SDS011;7469;50.906;6.952;2024-03-02T05:04:49;2.27;;;1.80;;
14754;SDS011;7469;50.906;6.952;2024-03-02T05:07:17;2.47;;;1.50;;
14754;SDS011;7469;50.906;6.952;2024-03-02T05:09:44;2.10;;;1.63;;
14754;SDS011;7469;50.906;6.952;2024-03-02T05:12:14;2.73;;;1.67;;
14754;SDS011;7469;50.906;6.952;2024-03-02T05:15:03;3.20;;;1.60;;
14754;SDS011;7469;50.906;6.952;2024-03-02T05:17:31;2.00;;;1.50;;
14754;SDS011;7469;50.906;6.952;2024-03-02T05:19:59;1.70;;;1.60;;
14754;SDS011;7469;50.906;6.952;2024-03-02T05:22:27;1.77;;;1.50;;
14754;SDS011;7469;50.906;6.952;2024-03-02T05:24:55;2.17;;;1.53;;
14754;SDS011;7469;50.906;6.952;2024-03-02T05:27:25;3.63;;;1.70;;
14754;SDS011;7469;50.906;6.952;2024-03-02T05:29:53;1.70;;;1.60;;
14754;SDS011;7469;50.906;6.952;2024-03-02T05:32:23;2.83;;;1.80;;
14754;SDS011;7469;50.906;6.952;2024-03-02T05:34:51;2.20;;;1.80;;
14754;SDS011;7469;50.906;6.952;2024-03-02T05:37:18;1.63;;;1.53;;
14754;SDS011;7469;50.906;6.952;2024-03-02T05:39:47;4.37;;;1.77;;
14754;SDS011;7469;50.906;6.952;2024-03-02T05:42:15;2.77;;;1.53;;
14754;SDS011;7469;50.906;6.952;2024-03-02T05:44:44;2.07;;;1.77;;
14754;SDS011;7469;50.906;6.952;2024-03-02T05:47:12;2.43;;;1.70;;
14754;SDS011;7469;50.906;6.952;2024-03-02T05:49:41;3.00;;;2.13;;
14754;SDS011;7469;50.906;6.952;2024-03-02T05:52:10;3.70;;;1.93;;
14754;SDS011;7469;50.906;6.952;2024-03-02T05:54:38;2.60;;;1.90;;
14754;SDS011;7469;50.906;6.952;2024-03-02T05:57:06;2.40;;;1.80;;
14754;SDS011;7469;50.906;6.952;2024-03-02T05:59:58;2.53;;;2.10;;
14754;SDS011;7469;50.906;6.952;2024-03-02T06:02:26;4.07;;;2.23;;
14754;SDS011;7469;50.906;6.952;2024-03-02T06:04:55;2.10;;;1.90;;
14754;SDS011;7469;50.906;6.952;2024-03-02T06:07:23;2.73;;;1.70;;
14754;SDS011;7469;50.906;6.952;2024-03-02T06:09:52;2.93;;;1.80;;
14754;SDS011;7469;50.906;6.952;2024-03-02T06:12:19;3.43;;;2.37;;
14754;SDS011;7469;50.906;6.952;2024-03-02T06:14:47;3.13;;;2.23;;
14754;SDS011;7469;50.906;6.952;2024-03-02T06:17:15;3.63;;;2.27;;
14754;SDS011;7469;50.906;6.952;2024-03-02T06:19:44;3.00;;;2.03;;
14754;SDS011;7469;50.906;6.952;2024-03-02T06:22:14;3.60;;;1.90;;
14754;SDS011;7469;50.906;6.952;2024-03-02T06:24:41;3.77;;;2.43;;
14754;SDS011;7469;50.906;6.952;2024-03-02T06:27:10;3.50;;;2.03;;
14754;SDS011;7469;50.906;6.952;2024-03-02T06:29:37;2.63;;;2.30;;
14754;SDS011;7469;50.906;6.952;2024-03-02T06:32:05;4.90;;;2.30;;
14754;SDS011;7469;50.906;6.952;2024-03-02T06:34:33;5.57;;;2.37;;
14754;SDS011;7469;50.906;6.952;2024-03-02T06:37:01;3.90;;;2.13;;
14754;SDS011;7469;50.906;6.952;2024-03-02T06:39:30;3.40;;;2.03;;
14754;SDS011;7469;50.906;6.952;2024-03-02T06:42:00;3.97;;;2.27;;
14754;SDS011;7469;50.906;6.952;2024-03-02T06:44:28;4.07;;;2.30;;
14754;SDS011;7469;50.906;6.952;2024-03-02T06:46:56;4.23;;;2.37;;
14754;SDS011;7469;50.906;6.952;2024-03-02T06:49:24;3.37;;;2.43;;
14754;SDS011;7469;50.906;6.952;2024-03-02T06:51:52;3.60;;;2.17;;
14754;SDS011;7469;50.906;6.952;2024-03-02T06:54:20;2.73;;;2.10;;
14754;SDS011;7469;50.906;6.952;2024-03-02T06:56:49;4.13;;;2.63;;
14754;SDS011;7469;50.906;6.952;2024-03-02T06:59:17;2.03;;;1.90;;
14754;SDS011;7469;50.906;6.952;2024-03-02T07:01:45;2.47;;;2.00;;
14754;SDS011;7469;50.906;6.952;2024-03-02T07:04:13;5.23;;;2.53;;
14754;SDS011;7469;50.906;6.952;2024-03-02T07:06:41;4.97;;;2.77;;
14754;SDS011;7469;50.906;6.952;2024-03-02T07:09:09;3.70;;;2.47;;
14754;SDS011;7469;50.906;6.952;2024-03-02T07:11:37;4.57;;;2.47;;
14754;SDS011;7469;50.906;6.952;2024-03-02T07:14:06;4.90;;;2.50;;
14754;SDS011;7469;50.906;6.952;2024-03-02T07:16:36;4.23;;;2.60;;
14754;SDS011;7469;50.906;6.952;2024-03-02T07:19:04;5.60;;;2.30;;
14754;SDS011;7469;50.906;6.952;2024-03-02T07:21:33;3.33;;;2.33;;
14754;SDS011;7469;50.906;6.952;2024-03-02T07:24:01;3.90;;;2.47;;
14754;SDS011;7469;50.906;6.952;2024-03-02T07:26:30;4.00;;;2.20;;
14754;SDS011;7469;50.906;6.952;2024-03-02T07:29:01;3.27;;;2.10;;
14754;SDS011;7469;50.906;6.952;2024-03-02T07:31:31;3.17;;;2.13;;
14754;SDS011;7469;50.906;6.952;2024-03-02T07:33:58;3.00;;;2.17;;
14754;SDS011;7469;50.906;6.952;2024-03-02T07:36:27;5.40;;;2.43;;
14754;SDS011;7469;50.906;6.952;2024-03-02T07:38:55;4.97;;;2.47;;
14754;SDS011;7469;50.906;6.952;2024-03-02T07:41:22;4.40;;;2.30;;
14754;SDS011;7469;50.906;6.952;2024-03-02T07:43:50;3.73;;;2.17;;
14754;SDS011;7469;50.906;6.952;2024-03-02T07:46:18;2.33;;;2.13;;
14754;SDS011;7469;50.906;6.952;2024-03-02T07:48:48;3.17;;;2.10;;
14754;SDS011;7469;50.906;6.952;2024-03-02T07:51:18;2.50;;;1.90;;
14754;SDS011;7469;50.906;6.952;2024-03-02T07:53:46;3.87;;;2.23;;
14754;SDS011;7469;50.906;6.952;2024-03-02T07:56:14;3.57;;;2.60;;
14754;SDS011;7469;50.906;6.952;2024-03-02T07:58:48;3.13;;;2.07;;
14754;SDS011;7469;50.906;6.952;2024-03-02T08:01:16;3.43;;;2.03;;
14754;SDS011;7469;50.906;6.952;2024-03-02T08:03:44;4.07;;;2.40;;
14754;SDS011;7469;50.906;6.952;2024-03-02T08:06:15;5.03;;;2.60;;
14754;SDS011;7469;50.906;6.952;2024-03-02T08:08:43;3.07;;;1.90;;
14754;SDS011;7469;50.906;6.952;2024-03-02T08:11:11;2.07;;;1.60;;
14754;SDS011;7469;50.906;6.952;2024-03-02T08:13:39;4.20;;;2.20;;
14754;SDS011;7469;50.906;6.952;2024-03-02T08:16:07;3.90;;;2.00;;
14754;SDS011;7469;50.906;6.952;2024-03-02T08:18:35;5.00;;;2.27;;
14754;SDS011;7469;50.906;6.952;2024-03-02T08:21:04;2.70;;;1.90;;
14754;SDS011;7469;50.906;6.952;2024-03-02T08:23:34;2.73;;;1.57;;
14754;SDS011;7469;50.906;6.952;2024-03-02T08:26:02;1.90;;;1.70;;
14754;SDS011;7469;50.906;6.952;2024-03-02T08:28:30;3.23;;;1.50;;
14754;SDS011;7469;50.906;6.952;2024-03-02T08:30:58;2.90;;;1.83;;
14754;SDS011;7469;50.906;6.952;2024-03-02T08:33:26;1.63;;;1.53;;
14754;SDS011;7469;50.906;6.952;2024-03-02T08:35:54;2.20;;;1.67;;
14754;SDS011;7469;50.906;6.952;2024-03-02T08:38:23;3.87;;;2.00;;
14754;SDS011;7469;50.906;6.952;2024-03-02T08:40:52;3.93;;;1.90;;
14754;SDS011;7469;50.906;6.952;2024-03-02T08:43:20;3.33;;;1.80;;
14754;SDS011;7469;50.906;6.952;2024-03-02T08:45:49;2.80;;;1.70;;
14754;SDS011;7469;50.906;6.952;2024-03-02T08:48:17;3.27;;;1.77;;
14754;SDS011;7469;50.906;6.952;2024-03-02T08:50:46;2.03;;;1.50;;
14754;SDS011;7469;50.906;6.952;2024-03-02T08:53:14;4.80;;;1.77;;
14754;SDS011;7469;50.906;6.952;2024-03-02T08:55:44;2.97;;;1.70;;
14754;SDS011;7469;50.906;6.952;2024-03-02T08:58:14;2.67;;;1.70;;
14754;SDS011;7469;50.906;6.952;2024-03-02T09:00:42;5.97;;;1.37;;
14754;SDS011;7469;50.906;6.952;2024-03-02T09:03:10;3.57;;;1.80;;
14754;SDS011;7469;50.906;6.952;2024-03-02T09:05:38;2.80;;;1.57;;
14754;SDS011;7469;50.906;6.952;2024-03-02T09:08:06;4.30;;;1.80;;
14754;SDS011;7469;50.906;6.952;2024-03-02T09:10:34;2.50;;;1.70;;
14754;SDS011;7469;50.906;6.952;2024-03-02T09:13:02;2.47;;;1.70;;
14754;SDS011;7469;50.906;6.952;2024-03-02T09:15:32;1.77;;;1.43;;
14754;SDS011;7469;50.906;6.952;2024-03-02T09:18:04;2.40;;;1.63;;
14754;SDS011;7469;50.906;6.952;2024-03-02T09:20:33;3.00;;;1.70;;
14754;SDS011;7469;50.906;6.952;2024-03-02T09:23:01;4.10;;;1.77;;
14754;SDS011;7469;50.906;6.952;2024-03-02T09:25:29;3.23;;;1.90;;
14754;SDS011;7469;50.906;6.952;2024-03-02T09:27:56;2.67;;;1.93;;
14754;SDS011;7469;50.906;6.952;2024-03-02T09:30:24;3.53;;;1.80;;
14754;SDS011;7469;50.906;6.952;2024-03-02T09:32:54;2.93;;;1.87;;
14754;SDS011;7469;50.906;6.952;2024-03-02T09:35:42;2.17;;;1.73;;
14754;SDS011;7469;50.906;6.952;2024-03-02T09:38:10;2.47;;;1.60;;
14754;SDS011;7469;50.906;6.952;2024-03-02T09:40:38;3.33;;;1.90;;
14754;SDS011;7469;50.906;6.952;2024-03-02T09:43:05;2.80;;;1.70;;
14754;SDS011;7469;50.906;6.952;2024-03-02T09:45:35;3.90;;;1.53;;
14754;SDS011;7469;50.906;6.952;2024-03-02T09:48:06;2.97;;;1.70;;
14754;SDS011;7469;50.906;6.952;2024-03-02T09:50:34;3.03;;;1.53;;
14754;SDS011;7469;50.906;6.952;2024-03-02T09:53:02;1.93;;;1.70;;
14754;SDS011;7469;50.906;6.952;2024-03-02T09:55:32;3.60;;;1.70;;
14754;SDS011;7469;50.906;6.952;2024-03-02T09:58:00;3.33;;;1.80;;
14754;SDS011;7469;50.906;6.952;2024-03-02T10:00:28;2.53;;;1.60;;
14754;SDS011;7469;50.906;6.952;2024-03-02T10:02:56;2.10;;;1.70;;
14754;SDS011;7469;50.906;6.952;2024-03-02T10:05:26;2.20;;;1.70;;
14754;SDS011;7469;50.906;6.952;2024-03-02T10:07:58;2.23;;;1.57;;
14754;SDS011;7469;50.906;6.952;2024-03-02T10:10:35;3.00;;;1.90;;
14754;SDS011;7469;50.906;6.952;2024-03-02T10:13:06;2.27;;;1.73;;
14754;SDS011;7469;50.906;6.952;2024-03-02T10:15:36;3.90;;;1.80;;
14754;SDS011;7469;50.906;6.952;2024-03-02T10:18:04;2.50;;;1.87;;
14754;SDS011;7469;50.906;6.952;2024-03-02T10:20:37;1.97;;;1.70;;
14754;SDS011;7469;50.906;6.952;2024-03-02T10:23:11;2.17;;;1.70;;
14754;SDS011;7469;50.906;6.952;2024-03-02T10:25:40;2.87;;;1.70;;
14754;SDS011;7469;50.906;6.952;2024-03-02T10:28:23;2.90;;;1.93;;
14754;SDS011;7469;50.906;6.952;2024-03-02T10:30:50;4.60;;;1.93;;
14754;SDS011;7469;50.906;6.952;2024-03-02T10:33:20;3.13;;;1.97;;
14754;SDS011;7469;50.906;6.952;2024-03-02T10:35:50;2.60;;;1.70;;
14754;SDS011;7469;50.906;6.952;2024-03-02T10:38:17;2.33;;;1.87;;
14754;SDS011;7469;50.906;6.952;2024-03-02T10:40:46;5.13;;;1.73;;
14754;SDS011;7469;50.906;6.952;2024-03-02T10:43:15;3.57;;;1.80;;
14754;SDS011;7469;50.906;6.952;2024-03-02T10:45:44;2.07;;;1.70;;
14754;SDS011;7469;50.906;6.952;2024-03-02T10:48:17;4.63;;;1.80;;
14754;SDS011;7469;50.906;6.952;2024-03-02T10:50:45;2.10;;;1.90;;
14754;SDS011;7469;50.906;6.952;2024-03-02T10:53:15;3.83;;;1.60;;
14754;SDS011;7469;50.906;6.952;2024-03-02T10:55:43;2.67;;;1.70;;
14754;SDS011;7469;50.906;6.952;2024-03-02T10:58:12;2.83;;;2.03;;
14754;SDS011;7469;50.906;6.952;2024-03-02T11:00:41;4.47;;;2.20;;
14754;SDS011;7469;50.906;6.952;2024-03-02T11:03:12;1.77;;;1.63;;
14754;SDS011;7469;50.906;6.952;2024-03-02T11:05:43;1.90;;;1.70;;
14754;SDS011;7469;50.906;6.952;2024-03-02T11:08:12;4.10;;;1.90;;
14754;SDS011;7469;50.906;6.952;2024-03-02T11:10:45;3.30;;;1.97;;
14754;SDS011;7469;50.906;6.952;2024-03-02T11:13:19;2.27;;;1.63;;
14754;SDS011;7469;50.906;6.952;2024-03-02T11:15:50;3.37;;;1.70;;
14754;SDS011;7469;50.906;6.952;2024-03-02T11:18:21;1.80;;;1.60;;
14754;SDS011;7469;50.906;6.952;2024-03-02T11:20:50;3.43;;;1.80;;
14754;SDS011;7469;50.906;6.952;2024-03-02T11:23:19;3.47;;;1.70;;
14754;SDS011;7469;50.906;6.952;2024-03-02T11:28:45;2.27;;;1.73;;
14754;SDS011;7469;50.906;6.952;2024-03-02T11:31:13;3.47;;;1.70;;
14754;SDS011;7469;50.906;6.952;2024-03-02T11:33:41;4.20;;;1.80;;
14754;SDS011;7469;50.906;6.952;2024-03-02T11:36:09;4.50;;;2.00;;
14754;SDS011;7469;50.906;6.952;2024-03-02T11:38:39;5.70;;;1.90;;
14754;SDS011;7469;50.906;6.952;2024-03-02T11:41:11;2.10;;;1.60;;
14754;SDS011;7469;50.906;6.952;2024-03-02T11:43:40;2.30;;;1.50;;
14754;SDS011;7469;50.906;6.952;2024-03-02T11:46:10;1.90;;;1.70;;
14754;SDS011;7469;50.906;6.952;2024-03-02T11:48:39;4.07;;;1.90;;
14754;SDS011;7469;50.906;6.952;2024-03-02T11:51:07;1.93;;;1.60;;
14754;SDS011;7469;50.906;6.952;2024-03-02T11:53:35;6.03;;;2.20;;
14754;SDS011;7469;50.906;6.952;2024-03-02T11:56:09;2.17;;;1.50;;
14754;SDS011;7469;50.906;6.952;2024-03-02T11:58:39;1.73;;;1.60;;
14754;SDS011;7469;50.906;6.952;2024-03-02T12:01:08;1.80;;;1.60;;
14754;SDS011;7469;50.906;6.952;2024-03-02T12:03:36;2.07;;;1.60;;
14754;SDS011;7469;50.906;6.952;2024-03-02T12:06:05;2.67;;;1.43;;
14754;SDS011;7469;50.906;6.952;2024-03-02T12:08:34;2.47;;;1.60;;
14754;SDS011;7469;50.906;6.952;2024-03-02T12:11:04;3.07;;;1.43;;
14754;SDS011;7469;50.906;6.952;2024-03-02T12:13:33;6.53;;;1.63;;
14754;SDS011;7469;50.906;6.952;2024-03-02T12:16:01;1.40;;;1.30;;
14754;SDS011;7469;50.906;6.952;2024-03-02T12:18:30;3.40;;;1.40;;
14754;SDS011;7469;50.906;6.952;2024-03-02T12:20:58;1.67;;;1.50;;
14754;SDS011;7469;50.906;6.952;2024-03-02T12:23:28;4.40;;;1.50;;
14754;SDS011;7469;50.906;6.952;2024-03-02T12:25:56;2.90;;;1.20;;
14754;SDS011;7469;50.906;6.952;2024-03-02T12:28:26;1.40;;;1.10;;
14754;SDS011;7469;50.906;6.952;2024-03-02T12:30:54;2.40;;;1.00;;
14754;SDS011;7469;50.906;6.952;2024-03-02T12:33:22;1.63;;;1.40;;
14754;SDS011;7469;50.906;6.952;2024-03-02T12:35:50;1.47;;;1.37;;
14754;SDS011;7469;50.906;6.952;2024-03-02T12:38:18;3.07;;;1.20;;
14754;SDS011;7469;50.906;6.952;2024-03-02T12:40:47;1.17;;;0.93;;
14754;SDS011;7469;50.906;6.952;2024-03-02T12:43:15;2.50;;;1.10;;
14754;SDS011;7469;50.906;6.952;2024-03-02T12:45:45;2.10;;;1.07;;
14754;SDS011;7469;50.906;6.952;2024-03-02T12:48:14;3.20;;;1.20;;
14754;SDS011;7469;50.906;6.952;2024-03-02T12:50:42;1.83;;;1.30;;
14754;SDS011;7469;50.906;6.952;2024-03-02T12:53:13;1.33;;;1.23;;
14754;SDS011;7469;50.906;6.952;2024-03-02T12:55:42;2.33;;;0.90;;
14754;SDS011;7469;50.906;6.952;2024-03-02T12:58:16;2.30;;;1.10;;
14754;SDS011;7469;50.906;6.952;2024-03-02T13:00:45;1.73;;;1.13;;
14754;SDS011;7469;50.906;6.952;2024-03-02T13:03:14;1.33;;;1.20;;
14754;SDS011;7469;50.906;6.952;2024-03-02T13:05:47;1.17;;;1.13;;
14754;SDS011;7469;50.906;6.952;2024-03-02T13:08:16;2.90;;;1.13;;
14754;SDS011;7469;50.906;6.952;2024-03-02T13:10:44;1.27;;;1.07;;
14754;SDS011;7469;50.906;6.952;2024-03-02T13:13:12;0.83;;;0.83;;
14754;SDS011;7469;50.906;6.952;2024-03-02T13:15:41;1.60;;;1.10;;
14754;SDS011;7469;50.906;6.952;2024-03-02T13:18:11;1.83;;;1.10;;
14754;SDS011;7469;50.906;6.952;2024-03-02T13:20:39;2.83;;;0.80;;
14754;SDS011;7469;50.906;6.952;2024-03-02T13:23:07;1.63;;;1.07;;
14754;SDS011;7469;50.906;6.952;2024-03-02T13:25:36;0.97;;;0.93;;
14754;SDS011;7469;50.906;6.952;2024-03-02T13:28:04;1.30;;;1.20;;
14754;SDS011;7469;50.906;6.952;2024-03-02T13:30:33;1.33;;;1.20;;
14754;SDS011;7469;50.906;6.952;2024-03-02T13:33:01;1.17;;;1.10;;
14754;SDS011;7469;50.906;6.952;2024-03-02T13:35:31;0.83;;;0.67;;
14754;SDS011;7469;50.906;6.952;2024-03-02T13:37:58;0.83;;;0.83;;
14754;SDS011;7469;50.906;6.952;2024-03-02T13:40:26;1.40;;;1.10;;
14754;SDS011;7469;50.906;6.952;2024-03-02T13:42:55;1.67;;;1.10;;
14754;SDS011;7469;50.906;6.952;2024-03-02T13:45:23;3.60;;;1.20;;
14754;SDS011;7469;50.906;6.952;2024-03-02T13:47:51;2.10;;;1.13;;
14754;SDS011;7469;50.906;6.952;2024-03-02T13:50:19;1.00;;;0.90;;
14754;SDS011;7469;50.906;6.952;2024-03-02T13:52:49;0.70;;;0.70;;
14754;SDS011;7469;50.906;6.952;2024-03-02T13:55:17;1.47;;;0.90;;
14754;SDS011;7469;50.906;6.952;2024-03-02T13:57:45;0.90;;;0.90;;
14754;SDS011;7469;50.906;6.952;2024-03-02T14:00:15;1.30;;;0.90;;
14754;SDS011;7469;50.906;6.952;2024-03-02T14:02:43;2.10;;;1.10;;
14754;SDS011;7469;50.906;6.952;2024-03-02T14:05:12;1.00;;;1.00;;
14754;SDS011;7469;50.906;6.952;2024-03-02T14:07:41;2.10;;;0.97;;
14754;SDS011;7469;50.906;6.952;2024-03-02T14:10:11;1.00;;;1.00;;
14754;SDS011;7469;50.906;6.952;2024-03-02T14:12:40;2.10;;;1.00;;
14754;SDS011;7469;50.906;6.952;2024-03-02T14:15:09;2.87;;;1.00;;
14754;SDS011;7469;50.906;6.952;2024-03-02T14:17:37;2.30;;;0.97;;
14754;SDS011;7469;50.906;6.952;2024-03-02T14:20:05;1.20;;;1.10;;
14754;SDS011;7469;50.906;6.952;2024-03-02T14:22:36;2.90;;;1.17;;
14754;SDS011;7469;50.906;6.952;2024-03-02T14:25:04;1.67;;;1.00;;
14754;SDS011;7469;50.906;6.952;2024-03-02T14:27:34;1.93;;;1.10;;
14754;SDS011;7469;50.906;6.952;2024-03-02T14:30:22;1.40;;;1.20;;
14754;SDS011;7469;50.906;6.952;2024-03-02T14:32:50;1.63;;;1.20;;
14754;SDS011;7469;50.906;6.952;2024-03-02T14:35:18;2.03;;;1.20;;
14754;SDS011;7469;50.906;6.952;2024-03-02T14:37:49;1.50;;;1.10;;
14754;SDS011;7469;50.906;6.952;2024-03-02T14:40:16;1.10;;;1.00;;
14754;SDS011;7469;50.906;6.952;2024-03-02T14:42:46;2.07;;;1.40;;
14754;SDS011;7469;50.906;6.952;2024-03-02T14:45:14;2.30;;;1.27;;
14754;SDS011;7469;50.906;6.952;2024-03-02T14:47:42;1.03;;;1.03;;
14754;SDS011;7469;50.906;6.952;2024-03-02T14:50:11;1.53;;;1.00;;
14754;SDS011;7469;50.906;6.952;2024-03-02T14:52:39;1.83;;;1.10;;
14754;SDS011;7469;50.906;6.952;2024-03-02T14:55:11;1.87;;;1.10;;
14754;SDS011;7469;50.906;6.952;2024-03-02T14:57:39;4.70;;;1.30;;
14754;SDS011;7469;50.906;6.952;2024-03-02T15:00:09;2.63;;;1.10;;
14754;SDS011;7469;50.906;6.952;2024-03-02T15:02:38;3.83;;;1.17;;
14754;SDS011;7469;50.906;6.952;2024-03-02T15:05:06;1.67;;;1.10;;
14754;SDS011;7469;50.906;6.952;2024-03-02T15:07:35;1.47;;;1.23;;
14754;SDS011;7469;50.906;6.952;2024-03-02T15:10:03;1.20;;;0.97;;
14754;SDS011;7469;50.906;6.952;2024-03-02T15:12:31;3.73;;;1.20;;
14754;SDS011;7469;50.906;6.952;2024-03-02T15:14:59;2.60;;;1.17;;
14754;SDS011;7469;50.906;6.952;2024-03-02T15:17:29;1.27;;;1.17;;